Time;durP1;ratioP1;P1;durP2;ratioP2;P2;SDS_P1;SDS_P2;PMS_P1;PMS_P2;Temp;Humidity;BMP_temperature;BMP_pressure;BME280_temperature;BME280_humidity;BME280_pressure;Samples;Min_cycle;Max_cycle;Signal;HPM_P1;HPM_P2
2022/07/07 00:00:42;;;;;;;10.68;2.53;;;;;;;17.56;88.77;102193.88;5054273;28;20040;-69
2022/07/07 00:03:07;;;;;;;6.85;2.13;;;;;;;17.52;88.22;102190.59;5053391;28;20059;-71
2022/07/07 00:05:37;;;;;;;8.50;2.60;;;;;;;17.50;87.60;102189.94;5054984;28;20082;-69
2022/07/07 00:08:03;;;;;;;9.23;1.90;;;;;;;17.49;86.98;102182.00;5054233;28;20033;-69
2022/07/07 00:10:28;;;;;;;7.47;2.05;;;;;;;17.48;86.06;102183.00;5054500;28;20433;-68
2022/07/07 00:12:54;;;;;;;4.82;1.95;;;;;;;17.47;85.63;102187.53;5054942;28;20037;-69
2022/07/07 00:15:19;;;;;;;6.93;2.10;;;;;;;17.44;86.04;102183.31;5054439;28;20040;-69
2022/07/07 00:17:45;;;;;;;4.78;1.98;;;;;;;17.44;85.58;102182.47;5054332;28;20028;-68
2022/07/07 00:20:10;;;;;;;7.82;2.13;;;;;;;17.43;84.78;102176.22;5054487;28;20492;-69
2022/07/07 00:22:36;;;;;;;4.47;1.83;;;;;;;17.44;84.86;102179.78;5054072;28;20400;-69
2022/07/07 00:25:01;;;;;;;9.85;2.13;;;;;;;17.43;84.88;102175.38;5053041;28;20037;-69
2022/07/07 00:27:26;;;;;;;7.22;1.90;;;;;;;17.41;84.89;102175.53;5053970;28;20086;-69
2022/07/07 00:29:52;;;;;;;7.68;1.90;;;;;;;17.42;84.60;102173.69;5054392;28;20162;-69
2022/07/07 00:32:17;;;;;;;6.45;2.05;;;;;;;17.40;84.75;102163.06;5054296;28;20037;-68
2022/07/07 00:34:42;;;;;;;4.80;1.83;;;;;;;17.38;84.27;102162.41;5053089;28;20033;-68
2022/07/07 00:37:08;;;;;;;4.38;1.90;;;;;;;17.37;84.32;102162.53;5053930;28;20033;-69
2022/07/07 00:39:34;;;;;;;8.80;2.30;;;;;;;17.36;84.15;102158.16;5053158;28;20037;-69
2022/07/07 00:41:59;;;;;;;5.50;1.98;;;;;;;17.33;83.99;102156.63;5054246;28;20428;-69
2022/07/07 00:44:25;;;;;;;4.32;1.98;;;;;;;17.31;83.78;102144.31;5054296;28;20041;-69
2022/07/07 00:46:55;;;;;;;3.53;1.90;;;;;;;17.28;83.95;102164.28;5053795;28;20070;-69
2022/07/07 00:49:21;;;;;;;10.70;2.30;;;;;;;17.23;84.01;102161.22;5052470;28;20119;-68
2022/07/07 00:51:47;;;;;;;7.32;2.38;;;;;;;17.19;84.00;102151.75;5053835;28;20438;-69
2022/07/07 00:54:12;;;;;;;10.68;1.92;;;;;;;17.16;83.74;102157.44;5053723;28;20029;-69
2022/07/07 00:56:39;;;;;;;5.53;2.15;;;;;;;17.10;84.86;102162.41;5053425;28;20457;-69
2022/07/07 00:59:08;;;;;;;4.43;1.83;;;;;;;17.05;86.03;102161.19;5053613;28;20047;-69
2022/07/07 01:01:40;;;;;;;8.70;1.75;;;;;;;16.95;86.73;102147.78;5053760;28;20160;-69
2022/07/07 01:04:12;;;;;;;5.57;1.70;;;;;;;16.87;86.60;102148.53;5053674;28;20036;-69
2022/07/07 01:06:39;;;;;;;6.95;1.67;;;;;;;16.80;86.29;102151.94;5054242;28;20126;-68
2022/07/07 01:09:05;;;;;;;10.10;1.77;;;;;;;16.78;85.48;102157.47;5053051;28;20408;-69
2022/07/07 01:11:45;;;;;;;8.77;2.58;;;;;;;16.79;85.56;102159.13;5052226;28;20037;-69
2022/07/07 01:14:10;;;;;;;2.75;1.35;;;;;;;16.80;84.91;102158.16;5052573;28;20029;-70
2022/07/07 01:16:35;;;;;;;8.43;1.70;;;;;;;16.83;85.04;102165.91;5051803;28;20393;-69
2022/07/07 01:19:01;;;;;;;5.38;1.33;;;;;;;16.83;85.33;102157.84;5053835;28;20424;-69
2022/07/07 01:21:29;;;;;;;3.67;1.83;;;;;;;16.81;86.18;102157.16;5053057;28;20029;-68
2022/07/07 01:23:54;;;;;;;2.95;1.50;;;;;;;16.77;86.05;102149.53;5053235;28;20072;-69
2022/07/07 01:26:19;;;;;;;5.28;1.60;;;;;;;16.71;86.54;102140.22;5052439;28;20039;-69
2022/07/07 01:28:45;;;;;;;5.50;1.70;;;;;;;16.60;86.89;102145.78;5053436;28;20069;-69
2022/07/07 01:31:10;;;;;;;4.43;2.10;;;;;;;16.52;87.84;102135.78;5053104;28;20061;-68
2022/07/07 01:33:35;;;;;;;3.05;1.55;;;;;;;16.52;87.81;102136.59;5053037;28;20037;-69
2022/07/07 01:36:01;;;;;;;8.30;2.00;;;;;;;16.52;88.88;102146.50;5052023;28;20064;-69
2022/07/07 01:38:26;;;;;;;5.82;2.00;;;;;;;16.45;90.57;102134.66;5053167;28;20041;-69
2022/07/07 01:40:51;;;;;;;5.07;1.98;;;;;;;16.26;93.23;102125.69;5053062;28;20033;-69
2022/07/07 01:43:17;;;;;;;5.30;2.20;;;;;;;16.08;94.98;102130.94;5052958;28;20474;-69
2022/07/07 01:45:42;;;;;;;3.33;1.90;;;;;;;15.99;96.47;102129.13;5053066;28;20060;-69
2022/07/07 01:48:08;;;;;;;9.60;2.08;;;;;;;15.96;97.15;102143.66;5056952;28;20033;-69
2022/07/07 01:50:33;;;;;;;6.30;2.42;;;;;;;15.79;100.00;102123.75;5057300;28;20454;-68
2022/07/07 01:52:59;;;;;;;6.57;1.92;;;;;;;15.53;100.00;102142.22;5057134;28;20144;-68
2022/07/07 01:55:24;;;;;;;6.30;1.98;;;;;;;15.33;100.00;102133.28;5057607;28;20346;-68
2022/07/07 01:57:49;;;;;;;6.18;2.13;;;;;;;15.19;100.00;102129.19;5056780;28;20037;-68
2022/07/07 02:00:16;;;;;;;6.55;2.28;;;;;;;15.11;100.00;102121.84;5057012;28;20037;-68
2022/07/07 02:02:41;;;;;;;8.20;2.65;;;;;;;15.07;100.00;102116.91;5057037;28;20098;-68
2022/07/07 02:05:07;;;;;;;6.75;1.88;;;;;;;15.08;100.00;102121.28;5056570;28;20478;-69
2022/07/07 02:07:35;;;;;;;10.25;2.40;;;;;;;15.09;100.00;102129.19;5057233;28;20029;-69
2022/07/07 02:10:01;;;;;;;9.57;2.25;;;;;;;15.13;100.00;102125.22;5056674;28;20041;-69
2022/07/07 02:12:26;;;;;;;8.02;2.13;;;;;;;15.21;100.00;102119.19;5057043;28;20436;-68
2022/07/07 02:14:52;;;;;;;11.88;2.15;;;;;;;15.28;100.00;102122.16;5057189;28;20110;-68
2022/07/07 02:17:17;;;;;;;3.85;2.03;;;;;;;15.33;100.00;102122.56;5056743;28;20385;-70
2022/07/07 02:19:43;;;;;;;8.23;2.30;;;;;;;15.40;100.00;102118.34;5056697;28;20033;-73
2022/07/07 02:22:09;;;;;;;11.63;2.05;;;;;;;15.40;100.00;102125.56;5057118;28;20151;-69
2022/07/07 02:24:34;;;;;;;3.88;1.88;;;;;;;15.39;100.00;102130.09;5056421;28;20040;-69
2022/07/07 02:26:59;;;;;;;9.02;2.13;;;;;;;15.37;100.00;102132.03;5056499;28;20330;-69
2022/07/07 02:29:25;;;;;;;11.35;2.30;;;;;;;15.39;100.00;102122.03;5056430;28;20039;-69
2022/07/07 02:31:50;;;;;;;6.03;1.92;;;;;;;15.45;100.00;102113.44;5056362;28;20037;-68
2022/07/07 02:34:15;;;;;;;8.93;1.83;;;;;;;15.50;100.00;102111.16;5056342;28;20056;-69
2022/07/07 02:36:41;;;;;;;6.90;1.80;;;;;;;15.52;100.00;102125.31;5055397;28;20396;-79
2022/07/07 02:39:06;;;;;;;17.52;2.97;;;;;;;15.55;100.00;102137.56;5053417;28;20051;-79
2022/07/07 02:41:32;;;;;;;8.85;2.70;;;;;;;15.49;100.00;102132.75;5053148;28;20040;-79
2022/07/07 02:43:57;;;;;;;15.20;2.10;;;;;;;15.41;100.00;102136.16;5036414;28;20107;-82
2022/07/07 02:46:22;;;;;;;7.68;1.90;;;;;;;15.27;100.00;102141.91;5054634;28;20103;-78
2022/07/07 02:48:48;;;;;;;9.68;2.33;;;;;;;15.13;100.00;102141.31;5053236;28;20036;-78
2022/07/07 02:51:13;;;;;;;13.15;1.98;;;;;;;14.98;100.00;102143.53;5054397;28;20029;-79
2022/07/07 02:53:39;;;;;;;14.48;2.10;;;;;;;14.85;100.00;102142.91;5054063;28;20044;-77
2022/07/07 02:56:04;;;;;;;5.20;1.67;;;;;;;14.74;100.00;102138.50;5053008;28;20032;-78
2022/07/07 02:58:30;;;;;;;9.05;1.60;;;;;;;14.65;100.00;102128.59;5053461;28;20071;-78
2022/07/07 03:00:56;;;;;;;7.63;1.65;;;;;;;14.57;100.00;102134.59;5054387;28;20454;-78
2022/07/07 03:03:21;;;;;;;12.70;2.25;;;;;;;14.53;100.00;102137.69;5054156;28;20041;-77
2022/07/07 03:05:47;;;;;;;9.30;1.80;;;;;;;14.48;100.00;102151.47;5054272;28;20037;-77
2022/07/07 03:08:13;;;;;;;9.23;2.35;;;;;;;14.46;100.00;102146.25;5036572;28;20037;-77
2022/07/07 03:10:39;;;;;;;8.02;1.65;;;;;;;14.45;100.00;102149.91;5036177;28;20025;-77
2022/07/07 03:13:04;;;;;;;10.77;2.17;;;;;;;14.47;100.00;102144.41;5053724;28;20432;-79
2022/07/07 03:15:30;;;;;;;15.93;2.30;;;;;;;14.49;100.00;102146.97;5054053;28;20036;-78
2022/07/07 03:17:56;;;;;;;12.60;2.47;;;;;;;14.51;100.00;102161.94;5052483;28;20396;-78
2022/07/07 03:20:21;;;;;;;10.82;1.90;;;;;;;14.52;100.00;102147.53;5054564;28;20347;-77
2022/07/07 03:22:47;;;;;;;8.75;1.70;;;;;;;14.56;100.00;102150.81;5052559;28;20025;-78
2022/07/07 03:25:12;;;;;;;11.25;1.98;;;;;;;14.60;100.00;102152.22;5053757;28;20441;-79
2022/07/07 03:27:39;;;;;;;8.32;1.95;;;;;;;14.61;100.00;102152.16;5052289;28;20048;-77
2022/07/07 03:30:06;;;;;;;10.80;2.20;;;;;;;14.64;100.00;102151.00;5053905;28;20044;-78
2022/07/07 03:32:32;;;;;;;15.50;2.38;;;;;;;14.67;100.00;102160.63;5052172;28;20037;-77
2022/07/07 03:34:57;;;;;;;8.32;2.25;;;;;;;14.68;100.00;102156.97;5053955;28;20039;-77
2022/07/07 03:37:24;;;;;;;17.92;2.35;;;;;;;14.68;100.00;102156.97;5053753;28;20077;-77
2022/07/07 03:39:49;;;;;;;15.95;2.38;;;;;;;14.67;100.00;102152.56;5053476;28;20424;-76
2022/07/07 03:42:15;;;;;;;12.63;2.28;;;;;;;14.63;100.00;102152.84;5053293;28;20116;-76
2022/07/07 03:44:40;;;;;;;8.40;2.00;;;;;;;14.63;100.00;102149.34;5052860;28;20053;-77
2022/07/07 03:47:06;;;;;;;10.13;1.80;;;;;;;14.63;100.00;102152.00;5053664;28;20028;-77
2022/07/07 03:49:31;;;;;;;9.73;2.10;;;;;;;14.65;100.00;102155.38;5052668;28;20106;-76
2022/07/07 03:51:57;;;;;;;15.98;2.03;;;;;;;14.67;100.00;102161.44;5053382;28;20072;-76
2022/07/07 03:54:24;;;;;;;20.58;1.95;;;;;;;14.70;100.00;102163.84;5053649;28;20037;-76
2022/07/07 03:56:49;;;;;;;6.97;1.90;;;;;;;14.72;100.00;102158.38;5053064;28;20043;-76
2022/07/07 03:59:14;;;;;;;8.02;1.73;;;;;;;14.74;100.00;102167.13;5053531;28;20072;-77
2022/07/07 04:01:44;;;;;;;10.05;1.85;;;;;;;14.76;100.00;102171.38;5053270;28;20458;-77
2022/07/07 04:04:14;;;;;;;5.45;1.33;;;;;;;14.80;100.00;102166.59;5053575;28;20033;-77
2022/07/07 04:06:40;;;;;;;9.95;1.85;;;;;;;14.83;100.00;102178.88;5053612;28;20071;-77
2022/07/07 04:09:06;;;;;;;7.93;1.65;;;;;;;14.83;100.00;102178.88;5053188;28;20029;-77
2022/07/07 04:11:31;;;;;;;8.27;1.30;;;;;;;14.83;100.00;102184.25;5051734;28;20029;-76
2022/07/07 04:13:57;;;;;;;9.25;1.65;;;;;;;14.77;100.00;102183.78;5052906;28;20032;-77
2022/07/07 04:16:22;;;;;;;8.20;1.63;;;;;;;14.74;100.00;102183.22;5052875;28;20432;-77
2022/07/07 04:18:47;;;;;;;8.13;1.40;;;;;;;14.74;100.00;102185.88;5052454;28;20425;-77
2022/07/07 04:21:13;;;;;;;10.98;2.03;;;;;;;14.70;98.14;102187.13;5052588;28;20036;-77
2022/07/07 04:23:38;;;;;;;12.88;1.75;;;;;;;14.67;97.79;102193.59;5051598;28;20086;-77
2022/07/07 04:26:04;;;;;;;10.35;2.30;;;;;;;14.67;98.11;102196.28;5051131;28;20075;-77
2022/07/07 04:28:30;;;;;;;10.10;1.88;;;;;;;14.67;97.22;102198.94;5052751;28;20070;-78
2022/07/07 04:30:55;;;;;;;20.90;2.40;;;;;;;14.69;96.88;102202.38;5053153;28;20021;-78
2022/07/07 04:33:21;;;;;;;12.73;2.15;;;;;;;14.70;96.14;102204.03;5052574;28;20028;-78
2022/07/07 04:35:46;;;;;;;5.78;1.75;;;;;;;14.71;96.76;102202.22;5052640;28;20037;-78
2022/07/07 04:38:11;;;;;;;11.18;1.88;;;;;;;14.71;95.79;102212.94;5051829;28;20453;-78
2022/07/07 04:40:37;;;;;;;11.27;1.92;;;;;;;14.72;96.25;102203.91;5052853;28;20033;-77
2022/07/07 04:43:02;;;;;;;14.80;3.17;;;;;;;14.72;95.99;102215.50;5051674;28;20051;-77
2022/07/07 04:45:28;;;;;;;10.77;1.85;;;;;;;14.73;95.50;102219.00;5052163;28;20033;-78
2022/07/07 04:47:53;;;;;;;22.38;2.92;;;;;;;14.77;95.14;102229.31;5051239;28;20098;-76
2022/07/07 04:50:19;;;;;;;16.05;2.28;;;;;;;14.81;95.07;102220.03;5052465;28;20059;-78
2022/07/07 04:52:44;;;;;;;15.75;2.60;;;;;;;14.86;95.33;102233.03;5052252;28;20436;-77
2022/07/07 04:55:09;;;;;;;11.82;2.15;;;;;;;14.89;94.78;102230.09;5051381;28;20032;-78
2022/07/07 04:57:35;;;;;;;11.95;2.22;;;;;;;14.91;95.12;102232.63;5051090;28;20334;-78
2022/07/07 05:00:00;;;;;;;15.32;2.38;;;;;;;14.92;94.42;102229.81;5052370;28;20031;-78
2022/07/07 05:02:26;;;;;;;11.52;2.78;;;;;;;14.91;94.37;102238.88;5051205;28;20481;-78
2022/07/07 05:04:51;;;;;;;15.43;1.90;;;;;;;14.90;94.43;102242.53;5052358;28;20416;-78
2022/07/07 05:07:18;;;;;;;11.88;2.35;;;;;;;14.89;94.75;102242.66;5050886;28;20032;-78
2022/07/07 05:09:44;;;;;;;14.18;1.90;;;;;;;14.88;94.85;102247.16;5052407;28;20029;-79
2022/07/07 05:12:10;;;;;;;15.90;2.72;;;;;;;14.88;94.23;102246.31;5051224;28;20086;-78
2022/07/07 05:14:35;;;;;;;12.07;2.17;;;;;;;14.89;94.24;102248.00;5052152;28;20084;-78
2022/07/07 05:17:01;;;;;;;11.75;2.05;;;;;;;14.91;93.09;102252.25;5051820;28;20488;-79
2022/07/07 05:19:26;;;;;;;16.45;2.20;;;;;;;14.96;91.56;102259.91;5052002;28;20021;-79
2022/07/07 05:21:52;;;;;;;12.60;2.10;;;;;;;14.98;91.02;102260.59;5051618;28;20053;-79
2022/07/07 05:24:18;;;;;;;14.88;2.70;;;;;;;15.04;90.92;102254.72;5051247;28;20112;-80
2022/07/07 05:26:44;;;;;;;12.13;2.10;;;;;;;15.06;90.42;102266.16;5052272;28;20116;-77
2022/07/07 05:29:09;;;;;;;16.58;2.20;;;;;;;15.13;91.01;102269.13;5053042;28;20488;-77
2022/07/07 05:31:34;;;;;;;9.68;2.00;;;;;;;15.23;90.54;102270.03;5051561;28;20021;-79
2022/07/07 05:34:00;;;;;;;14.68;2.20;;;;;;;15.29;90.60;102277.53;5051860;28;20095;-80
2022/07/07 05:36:25;;;;;;;9.80;2.28;;;;;;;15.34;90.12;102269.91;5051700;28;20437;-79
2022/07/07 05:38:51;;;;;;;15.20;2.40;;;;;;;15.45;89.50;102281.53;5051915;28;20033;-79
2022/07/07 05:41:16;;;;;;;18.80;2.40;;;;;;;15.52;88.68;102299.66;5051592;28;20032;-78
2022/07/07 05:43:42;;;;;;;10.05;1.77;;;;;;;15.59;88.08;102283.84;5051288;28;20404;-82
2022/07/07 05:46:08;;;;;;;9.18;2.15;;;;;;;15.62;86.57;102290.78;5051276;28;20025;-78
2022/07/07 05:48:33;;;;;;;10.65;2.22;;;;;;;15.61;86.78;102299.81;5050030;28;20096;-78
2022/07/07 05:50:59;;;;;;;12.10;2.13;;;;;;;15.50;88.44;102296.25;5051281;28;20021;-80
2022/07/07 05:53:24;;;;;;;13.15;1.95;;;;;;;15.38;89.03;102294.66;5050951;28;20060;-78
2022/07/07 05:55:50;;;;;;;9.57;1.85;;;;;;;15.40;89.04;102299.88;5051269;28;20034;-78
2022/07/07 05:58:15;;;;;;;10.57;1.90;;;;;;;15.49;88.60;102312.47;5051475;28;20040;-81
2022/07/07 06:00:41;;;;;;;12.80;2.08;;;;;;;15.52;88.08;102315.75;5049585;28;20112;-79
2022/07/07 06:03:06;;;;;;;9.65;2.38;;;;;;;15.37;92.30;102321.59;5051244;28;20033;-81
2022/07/07 06:05:32;;;;;;;7.10;1.95;;;;;;;14.97;97.38;102333.94;5051154;28;20021;-80
2022/07/07 06:07:57;;;;;;;14.00;2.47;;;;;;;14.67;100.00;102332.88;5049867;28;20083;-83
2022/07/07 06:10:23;;;;;;;12.77;2.00;;;;;;;14.50;100.00;102338.81;5049452;28;20370;-80
2022/07/07 06:12:48;;;;;;;23.70;2.33;;;;;;;14.43;100.00;102336.63;5051393;28;20384;-78
2022/07/07 06:15:14;;;;;;;10.82;1.88;;;;;;;14.57;100.00;102339.97;5051268;28;20090;-78
2022/07/07 06:17:40;;;;;;;10.75;1.98;;;;;;;14.75;100.00;102327.75;5051257;28;20179;-78
2022/07/07 06:20:06;;;;;;;12.00;2.10;;;;;;;14.96;100.00;102334.94;5050937;28;20029;-78
2022/07/07 06:22:32;;;;;;;9.00;1.90;;;;;;;15.18;100.00;102341.13;5051583;28;20039;-78
2022/07/07 06:24:58;;;;;;;10.88;1.98;;;;;;;15.34;100.00;102341.47;5051142;28;20029;-76
2022/07/07 06:27:23;;;;;;;14.07;2.20;;;;;;;15.44;99.79;102342.38;5051075;28;20043;-77
2022/07/07 06:29:49;;;;;;;11.95;1.58;;;;;;;15.58;98.49;102341.16;5049686;28;20040;-77
2022/07/07 06:32:15;;;;;;;6.32;1.90;;;;;;;15.92;94.51;102340.88;5049703;28;20182;-77
2022/07/07 06:34:41;;;;;;;8.48;1.73;;;;;;;16.32;93.84;102345.31;5054173;28;20096;-76
2022/07/07 06:37:06;;;;;;;9.68;1.75;;;;;;;16.64;88.73;102346.88;5054444;28;20119;-75
2022/07/07 06:39:32;;;;;;;8.98;1.77;;;;;;;16.71;88.14;102352.53;5054985;28;20498;-77
2022/07/07 06:41:57;;;;;;;11.60;2.08;;;;;;;16.82;87.26;102362.28;5055437;28;20036;-77
2022/07/07 06:44:22;;;;;;;15.60;1.80;;;;;;;16.96;85.73;102356.50;5055109;28;20088;-77
2022/07/07 06:46:48;;;;;;;10.68;1.85;;;;;;;17.15;84.74;102338.59;5054672;28;20056;-78
2022/07/07 06:49:13;;;;;;;9.20;2.25;;;;;;;17.09;81.75;102367.78;5054966;28;20033;-78
2022/07/07 06:51:39;;;;;;;7.82;2.00;;;;;;;17.02;82.17;102366.66;5054579;28;20036;-77
2022/07/07 06:54:05;;;;;;;6.07;1.50;;;;;;;17.03;79.70;102372.88;5054472;28;20106;-77
2022/07/07 06:56:30;;;;;;;10.27;2.30;;;;;;;16.93;78.78;102375.59;5054702;28;20520;-77
2022/07/07 06:58:56;;;;;;;9.55;2.38;;;;;;;16.96;80.09;102372.63;5054752;28;20051;-78
2022/07/07 07:01:21;;;;;;;10.63;1.98;;;;;;;17.04;81.52;102388.88;5054567;28;20037;-77
2022/07/07 07:03:46;;;;;;;11.63;1.73;;;;;;;16.86;80.02;102374.44;5054446;28;20083;-77
2022/07/07 07:06:12;;;;;;;7.65;1.70;;;;;;;16.84;80.35;102376.41;5054978;28;20036;-77
2022/07/07 07:08:37;;;;;;;11.50;2.35;;;;;;;16.77;81.08;102384.22;5053451;28;20389;-77
2022/07/07 07:11:03;;;;;;;10.70;1.70;;;;;;;16.79;80.56;102379.53;5054542;28;20025;-78
2022/07/07 07:13:30;;;;;;;9.05;1.90;;;;;;;16.69;79.16;102384.91;5053079;28;20025;-76
2022/07/07 07:15:55;;;;;;;4.00;1.20;;;;;;;16.85;79.97;102395.06;5054203;28;20028;-76
2022/07/07 07:18:21;;;;;;;6.72;1.30;;;;;;;17.16;79.90;102392.25;5053934;28;20111;-77
2022/07/07 07:20:46;;;;;;;9.05;1.75;;;;;;;17.35;77.45;102395.91;5053564;28;20033;-77
2022/07/07 07:23:12;;;;;;;7.90;1.58;;;;;;;17.26;78.91;102400.31;5053853;28;20033;-79
2022/07/07 07:25:37;;;;;;;8.65;1.95;;;;;;;16.90;82.70;102400.91;5054176;28;20092;-76
2022/07/07 07:28:03;;;;;;;7.80;1.70;;;;;;;16.53;86.76;102409.66;5054125;28;20029;-76
2022/07/07 07:30:28;;;;;;;12.52;2.05;;;;;;;16.29;90.83;102402.00;5054395;28;20381;-75
2022/07/07 07:32:53;;;;;;;8.57;1.40;;;;;;;16.11;91.43;102404.50;5053123;28;20037;-76
2022/07/07 07:35:19;;;;;;;7.18;1.80;;;;;;;16.13;92.93;102407.88;5054132;28;20029;-76
2022/07/07 07:37:44;;;;;;;13.82;1.90;;;;;;;16.40;91.08;102409.06;5052373;28;20453;-76
2022/07/07 07:40:11;;;;;;;8.63;1.70;;;;;;;16.47;90.21;102414.75;5053753;28;20040;-76
2022/07/07 07:42:38;;;;;;;12.18;2.30;;;;;;;16.28;92.83;102421.78;5053601;28;20033;-77
2022/07/07 07:45:10;;;;;;;8.70;1.73;;;;;;;15.91;95.04;102433.09;5053011;28;20060;-76
2022/07/07 07:47:37;;;;;;;11.40;1.75;;;;;;;15.64;96.21;102426.47;5052455;28;20052;-80
2022/07/07 07:50:03;;;;;;;11.50;2.00;;;;;;;15.47;97.34;102429.78;5054351;28;20029;-77
2022/07/07 07:52:28;;;;;;;9.20;2.05;;;;;;;15.56;98.57;102426.28;5053638;28;20057;-75
2022/07/07 07:54:53;;;;;;;12.50;2.03;;;;;;;15.57;97.55;102427.13;5053954;28;20549;-76
2022/07/07 07:57:19;;;;;;;12.60;1.85;;;;;;;15.45;97.19;102439.78;5053593;28;20055;-76
2022/07/07 07:59:44;;;;;;;8.05;1.70;;;;;;;15.34;98.83;102430.81;5053420;28;20061;-76
2022/07/07 08:02:10;;;;;;;8.75;1.42;;;;;;;15.22;100.00;102437.25;5053011;28;20037;-76
2022/07/07 08:04:35;;;;;;;6.18;1.58;;;;;;;15.31;100.00;102438.28;5053312;28;20525;-77
2022/07/07 08:07:01;;;;;;;4.78;1.00;;;;;;;15.54;100.00;102438.13;5053445;28;20033;-76
2022/07/07 08:09:27;;;;;;;10.23;1.52;;;;;;;15.75;99.57;102438.97;5052912;28;20036;-75
2022/07/07 08:11:52;;;;;;;6.07;1.23;;;;;;;16.24;100.00;102438.31;5052637;28;20063;-75
2022/07/07 08:14:18;;;;;;;7.47;1.40;;;;;;;16.51;95.03;102446.56;5053104;28;20037;-76
2022/07/07 08:16:43;;;;;;;5.30;1.33;;;;;;;16.40;93.70;102450.19;5053450;28;20044;-75
2022/07/07 08:19:09;;;;;;;5.18;1.20;;;;;;;15.98;94.67;102457.59;5053162;28;20029;-76
2022/07/07 08:21:35;;;;;;;3.50;1.08;;;;;;;15.69;96.46;102458.28;5052872;28;20033;-76
2022/07/07 08:24:01;;;;;;;5.55;1.10;;;;;;;15.62;98.52;102462.47;5053172;28;20044;-76
2022/07/07 08:26:26;;;;;;;6.32;0.85;;;;;;;15.76;98.49;102454.06;5052711;28;20186;-76
2022/07/07 08:28:51;;;;;;;5.93;1.17;;;;;;;16.09;97.65;102456.63;5052383;28;20144;-75
2022/07/07 08:31:17;;;;;;;11.43;2.08;;;;;;;16.53;95.42;102462.56;5052531;28;20507;-76
2022/07/07 08:33:42;;;;;;;9.15;1.45;;;;;;;17.05;91.27;102456.97;5051693;28;20369;-76
2022/07/07 08:36:08;;;;;;;8.98;1.83;;;;;;;17.52;87.49;102451.63;5052682;28;20029;-76
2022/07/07 08:38:33;;;;;;;12.30;2.40;;;;;;;18.01;84.87;102458.72;5051407;28;20044;-76
2022/07/07 08:40:58;;;;;;;14.52;2.40;;;;;;;18.47;82.25;102455.03;5052172;28;20072;-75
2022/07/07 08:43:24;;;;;;;11.05;1.77;;;;;;;18.93;80.07;102457.72;5052248;28;20073;-76
2022/07/07 08:45:50;;;;;;;8.82;1.67;;;;;;;18.72;75.14;102474.19;5052695;28;20060;-75
2022/07/07 08:48:15;;;;;;;12.50;2.00;;;;;;;18.23;79.49;102484.41;5051260;28;20045;-75
2022/07/07 08:50:40;;;;;;;15.85;2.22;;;;;;;17.63;81.07;102494.53;5052600;28;20029;-76
2022/07/07 08:53:12;;;;;;;9.05;1.80;;;;;;;17.38;84.58;102485.22;5052374;28;20041;-77
2022/07/07 08:55:41;;;;;;;13.98;1.80;;;;;;;17.52;83.98;102491.16;5051870;28;20056;-77
2022/07/07 08:58:09;;;;;;;10.85;1.65;;;;;;;18.18;83.46;102482.16;5052026;28;20032;-76
2022/07/07 09:00:35;;;;;;;7.03;1.48;;;;;;;19.09;76.00;102497.44;5052473;28;20124;-76
2022/07/07 09:03:03;;;;;;;9.73;1.90;;;;;;;18.98;74.34;102497.72;5052366;28;20068;-75
2022/07/07 09:05:37;;;;;;;10.25;1.98;;;;;;;18.44;77.38;102500.31;5052520;28;20116;-76
2022/07/07 09:08:16;;;;;;;14.15;2.28;;;;;;;18.05;78.42;102495.09;5052384;28;20025;-76
2022/07/07 09:10:44;;;;;;;14.98;2.00;;;;;;;18.08;79.25;102509.16;5052322;28;20040;-75
2022/07/07 09:13:31;;;;;;;15.57;2.35;;;;;;;18.09;78.89;102516.22;5052410;28;20053;-75
2022/07/07 09:16:01;;;;;;;11.75;2.70;;;;;;;18.18;78.79;102509.09;5051818;28;20060;-76
2022/07/07 09:18:31;;;;;;;10.18;2.00;;;;;;;18.19;79.10;102526.94;5051565;28;20051;-77
2022/07/07 09:20:57;;;;;;;18.25;2.38;;;;;;;17.93;77.70;102518.72;5051646;28;20037;-77
2022/07/07 09:23:22;;;;;;;14.32;2.63;;;;;;;18.07;78.48;102522.75;5051431;28;20047;-76
2022/07/07 09:25:48;;;;;;;11.07;2.60;;;;;;;17.91;77.77;102537.66;5051191;28;20076;-77
2022/07/07 09:28:13;;;;;;;16.05;2.25;;;;;;;17.79;78.32;102533.44;5051796;28;20025;-75
2022/07/07 09:30:40;;;;;;;14.85;2.08;;;;;;;17.65;78.37;102537.44;5051275;28;20029;-78
2022/07/07 09:33:08;;;;;;;11.02;2.05;;;;;;;17.83;77.75;102547.47;5051306;28;20025;-78
2022/07/07 09:38:23;;;;;;;10.05;2.17;;;;;;;18.42;74.79;102545.41;5052025;28;20496;-78
2022/07/07 09:41:03;;;;;;;13.68;2.65;;;;;;;18.36;75.95;102557.63;5049815;28;20036;-78
2022/07/07 09:43:47;;;;;;;10.95;2.30;;;;;;;18.07;78.39;102560.47;5049640;28;20045;-77
2022/07/07 09:46:17;;;;;;;8.65;2.10;;;;;;;17.89;80.26;102573.81;5051744;28;20032;-78
2022/07/07 09:49:02;;;;;;;7.80;1.58;;;;;;;17.96;78.46;102581.19;5051433;28;20032;-77
2022/07/07 09:51:29;;;;;;;11.38;1.33;;;;;;;18.05;77.20;102587.53;5051650;28;20032;-77
2022/07/07 09:54:00;;;;;;;4.35;1.17;;;;;;;19.21;72.70;102570.91;5051297;28;20060;-76
2022/07/07 09:56:46;;;;;;;6.95;1.10;;;;;;;20.71;64.74;102582.56;5051641;28;20135;-79
2022/07/07 09:59:19;;;;;;;4.63;1.00;;;;;;;22.34;58.64;102574.63;5051332;28;20392;-76
2022/07/07 10:01:47;;;;;;;6.35;1.38;;;;;;;22.80;57.34;102590.19;5051953;28;20037;-76
2022/07/07 10:04:16;;;;;;;8.55;1.55;;;;;;;21.97;58.28;102590.44;5051398;28;20025;-76
2022/07/07 10:06:43;;;;;;;10.90;1.80;;;;;;;21.44;60.24;102587.25;5051554;28;20083;-81
2022/07/07 10:09:12;;;;;;;9.60;2.03;;;;;;;21.86;60.23;102592.69;5055183;28;20025;-84
2022/07/07 10:11:45;;;;;;;11.15;2.40;;;;;;;21.82;58.17;102601.13;5055778;28;20477;-81
2022/07/07 10:14:20;;;;;;;13.15;2.28;;;;;;;21.73;59.84;102613.00;5055720;28;20507;-87
2022/07/07 10:16:48;;;;;;;8.20;1.70;;;;;;;20.64;64.49;102605.84;5055615;28;20448;-85
2022/07/07 10:19:16;;;;;;;8.00;2.08;;;;;;;19.68;69.59;102619.25;5055630;28;20056;-83
2022/07/07 10:21:46;;;;;;;5.65;1.38;;;;;;;19.56;71.21;102621.34;5055627;28;20029;-85
2022/07/07 10:24:14;;;;;;;3.67;0.88;;;;;;;19.85;68.53;102625.63;5055223;28;20449;-86
2022/07/07 10:26:41;;;;;;;10.10;1.55;;;;;;;20.08;67.44;102627.84;5055368;28;20457;-88
2022/07/07 10:29:10;;;;;;;5.68;1.42;;;;;;;20.27;66.97;102632.16;5055587;28;20060;-86
2022/07/07 10:31:37;;;;;;;6.65;1.40;;;;;;;20.17;66.23;102631.41;5055335;28;20470;-83
2022/07/07 10:34:11;;;;;;;10.50;1.70;;;;;;;20.12;65.24;102633.78;5055282;28;20111;-83
2022/07/07 10:36:46;;;;;;;8.70;1.80;;;;;;;19.86;66.32;102642.72;5054995;28;20044;-80
2022/07/07 10:39:20;;;;;;;11.75;1.40;;;;;;;19.72;66.83;102652.16;5055100;28;20087;-82
2022/07/07 10:42:15;;;;;;;4.32;1.05;;;;;;;18.63;74.97;102653.84;5054864;28;20033;-78
2022/07/07 10:44:43;;;;;;;7.28;1.38;;;;;;;17.45;80.64;102674.69;5017485;28;20120;-80
2022/07/07 10:47:12;;;;;;;4.53;1.00;;;;;;;16.75;87.13;102671.09;5054468;28;20384;-77
2022/07/07 10:49:38;;;;;;;4.40;1.00;;;;;;;16.47;93.24;102681.56;5054106;28;20025;-77
2022/07/07 10:52:14;;;;;;;5.80;0.95;;;;;;;16.55;96.35;102678.19;5054582;28;20102;-77
2022/07/07 10:54:48;;;;;;;2.00;0.85;;;;;;;16.97;95.27;102690.72;5053389;28;20036;-79
2022/07/07 10:57:19;;;;;;;4.70;1.15;;;;;;;17.61;89.93;102684.06;5053165;28;20377;-76
2022/07/07 10:59:59;;;;;;;6.35;1.30;;;;;;;18.13;87.17;102694.56;5053291;28;20035;-79
2022/07/07 11:02:49;;;;;;;5.28;1.30;;;;;;;17.98;84.56;102691.44;5053703;28;20064;-75
2022/07/07 11:05:14;;;;;;;9.85;2.05;;;;;;;17.71;83.35;102701.06;5053949;28;20024;-76
2022/07/07 11:08:03;;;;;;;13.18;1.88;;;;;;;17.60;85.96;102706.56;5053485;28;20117;-75
2022/07/07 11:10:49;;;;;;;6.00;1.60;;;;;;;17.03;89.30;102734.06;5048705;28;20120;-76
2022/07/07 11:13:28;;;;;;;5.70;1.65;;;;;;;16.39;92.04;102732.41;5053426;28;20032;-77
2022/07/07 11:16:10;;;;;;;8.52;1.88;;;;;;;16.09;95.59;102731.34;5054187;28;20039;-78
2022/07/07 11:18:36;;;;;;;8.95;2.08;;;;;;;16.14;98.96;102734.50;5053396;28;20470;-77
2022/07/07 11:21:04;;;;;;;8.25;1.65;;;;;;;16.34;98.95;102726.59;5053531;28;20033;-77